Time;durP1;ratioP1;P1;durP2;ratioP2;P2;SDS_P1;SDS_P2;PMS_P1;PMS_P2;Temp;Humidity;BMP_temperature;BMP_pressure;BME280_temperature;BME280_humidity;BME280_pressure;Samples;Min_cycle;Max_cycle;Signal;HPM_P1;HPM_P2
2022/07/14 00:02:11;;;;;;;;;15.00;12.00;;;;;29.98;36.87;101611.91;5052745;28;69854;-78
2022/07/14 00:04:36;;;;;;;;;14.00;11.33;;;;;29.96;36.61;101591.19;5038430;28;64861;-78
2022/07/14 00:07:01;;;;;;;;;11.00;11.00;;;;;29.94;36.76;101598.59;5036938;28;45479;-78
2022/07/14 00:09:27;;;;;;;;;12.00;10.67;;;;;29.92;36.36;101585.03;5036954;28;45800;-77
2022/07/14 00:11:52;;;;;;;;;11.00;11.00;;;;;29.93;36.65;101586.78;5035726;28;62135;-79
2022/07/14 00:14:18;;;;;;;;;11.00;11.00;;;;;29.92;36.60;101578.72;5040494;28;66276;-78
2022/07/14 00:16:43;;;;;;;;;10.67;10.67;;;;;29.91;36.86;101568.78;5041731;28;59136;-78
2022/07/14 00:19:08;;;;;;;;;12.33;9.33;;;;;29.88;36.75;101556.25;5054004;28;45307;-77
2022/07/14 00:21:34;;;;;;;;;9.00;8.67;;;;;29.87;36.93;101542.69;5036114;28;70376;-77
2022/07/14 00:23:59;;;;;;;;;11.00;10.00;;;;;29.88;36.73;101552.63;5036645;28;45416;-78
2022/07/14 00:26:24;;;;;;;;;7.67;7.67;;;;;29.85;36.97;101550.09;5053163;28;46762;-79
2022/07/14 00:28:50;;;;;;;;;9.67;8.33;;;;;29.82;37.23;101533.94;5054901;28;45622;-79
2022/07/14 00:31:15;;;;;;;;;9.67;9.33;;;;;29.77;37.46;101536.91;5056628;28;47070;-77
2022/07/14 00:33:41;;;;;;;;;10.67;7.67;;;;;29.73;37.54;101536.25;5051891;28;45313;-76
2022/07/14 00:36:07;;;;;;;;;10.33;9.00;;;;;29.70;37.63;101544.56;5022361;28;45565;-77
2022/07/14 00:38:32;;;;;;;;;11.33;9.67;;;;;29.68;37.90;101542.91;5048671;28;45335;-77
2022/07/14 00:40:58;;;;;;;;;8.33;8.33;;;;;29.64;37.49;101546.78;5053572;28;45703;-78
2022/07/14 00:43:24;;;;;;;;;11.00;11.00;;;;;29.61;37.80;101552.38;5036712;28;45431;-77
2022/07/14 00:45:49;;;;;;;;;14.67;11.00;;;;;29.58;37.86;101550.72;5036714;28;45241;-78
2022/07/14 00:48:16;;;;;;;;;10.00;9.00;;;;;29.57;38.03;101548.97;5039926;28;45324;-77
2022/07/14 00:50:43;;;;;;;;;15.00;13.67;;;;;29.55;38.22;101561.78;5044842;28;46796;-77
2022/07/14 00:53:09;;;;;;;;;14.00;11.00;;;;;29.49;38.69;101567.53;5053409;28;45562;-77
2022/07/14 00:55:35;;;;;;;;;11.00;10.67;;;;;29.42;38.76;101577.03;5054838;28;45447;-77
2022/07/14 00:58:01;;;;;;;;;10.33;9.00;;;;;29.34;38.85;101571.13;5056219;28;45418;-78
2022/07/14 01:00:26;;;;;;;;;13.33;9.67;;;;;29.26;38.84;101566.13;5056467;28;47925;-76
2022/07/14 01:02:52;;;;;;;;;10.67;9.33;;;;;29.19;38.73;101562.88;5047140;28;45415;-77
2022/07/14 01:05:18;;;;;;;;;7.00;7.00;;;;;29.14;38.83;101570.41;5043638;28;45204;-78
2022/07/14 01:07:43;;;;;;;;;8.67;8.67;;;;;29.08;38.86;101573.44;5025463;28;46051;-77
2022/07/14 01:10:10;;;;;;;;;7.00;7.00;;;;;29.02;39.21;101573.75;5056111;28;52820;-78
2022/07/14 01:12:36;;;;;;;;;12.67;7.67;;;;;28.99;38.91;101579.38;5036335;28;45506;-78
2022/07/14 01:15:02;;;;;;;;;8.67;8.67;;;;;28.95;38.92;101573.22;5034193;28;45361;-78
2022/07/14 01:17:27;;;;;;;;;12.00;9.00;;;;;28.88;38.95;101579.06;5036496;28;45728;-77
2022/07/14 01:19:53;;;;;;;;;11.00;11.00;;;;;28.81;39.43;101588.47;5036579;28;68668;-77
2022/07/14 01:22:18;;;;;;;;;9.67;9.67;;;;;28.71;39.33;101589.00;5040056;28;45430;-77
2022/07/14 01:24:44;;;;;;;;;13.00;10.67;;;;;28.67;39.78;101598.25;5055275;28;59368;-78
2022/07/14 01:27:11;;;;;;;;;10.00;8.00;;;;;28.62;39.69;101594.91;5035816;28;45562;-77
2022/07/14 01:29:36;;;;;;;;;13.00;9.00;;;;;28.58;39.61;101596.03;5036068;28;46567;-78
2022/07/14 01:32:02;;;;;;;;;10.00;9.00;;;;;28.53;40.38;101594.50;5045600;28;45344;-77
2022/07/14 01:34:27;;;;;;;;;9.00;6.33;;;;;28.47;40.56;101587.56;5058828;28;45380;-78
2022/07/14 01:36:52;;;;;;;;;10.33;8.00;;;;;28.43;40.11;101602.25;5056131;28;45551;-77
2022/07/14 01:39:18;;;;;;;;;17.00;13.00;;;;;28.34;39.96;101600.03;5059261;28;46547;-77
2022/07/14 01:41:44;;;;;;;;;25.33;20.33;;;;;28.30;40.24;101596.53;5053199;28;45731;-78
2022/07/14 01:44:10;;;;;;;;;21.33;19.00;;;;;28.28;39.83;101584.84;5039421;28;45412;-77
2022/07/14 01:46:37;;;;;;;;;22.33;19.67;;;;;28.29;39.86;101583.03;5040655;28;45309;-77
2022/07/14 01:49:03;;;;;;;;;21.00;19.33;;;;;28.28;40.59;101589.41;5038941;28;47846;-78
2022/07/14 01:51:28;;;;;;;;;17.33;14.00;;;;;28.25;40.75;101586.88;5042681;28;45447;-77
2022/07/14 01:53:53;;;;;;;;;15.00;11.33;;;;;28.20;40.54;101592.53;5058769;28;55077;-78
2022/07/14 01:56:19;;;;;;;;;18.00;16.67;;;;;28.17;40.97;101584.53;5057397;28;45370;-79
2022/07/14 01:58:44;;;;;;;;;15.67;12.00;;;;;28.17;41.41;101582.69;5057731;28;68763;-77
2022/07/14 02:03:56;;;;;;;;;9.00;8.00;;;;;28.09;41.59;101581.34;5037629;28;45543;-77
2022/07/14 02:06:21;;;;;;;;;8.00;6.00;;;;;28.06;41.71;101579.63;5054196;28;45431;-77
2022/07/14 02:08:47;;;;;;;;;7.00;7.00;;;;;28.02;41.68;101575.34;5058720;28;46816;-77
2022/07/14 02:13:55;;;;;;;;;7.67;7.00;;;;;27.97;42.04;101565.66;5039185;28;45492;-78
2022/07/14 02:16:21;;;;;;;;;7.00;6.00;;;;;27.94;42.00;101563.97;5052167;28;59455;-77
2022/07/14 02:18:47;;;;;;;;;7.67;6.67;;;;;27.88;42.25;101559.72;5037863;28;67638;-77
2022/07/14 02:21:12;;;;;;;;;6.00;6.00;;;;;27.85;42.54;101561.69;5039964;28;45557;-77
2022/07/14 02:23:38;;;;;;;;;6.67;6.67;;;;;27.78;42.92;101552.13;5054160;28;45332;-78
2022/07/14 02:26:10;;;;;;;;;7.33;6.00;;;;;27.73;43.59;101556.88;5057322;28;45568;-77
2022/07/14 02:28:35;;;;;;;;;10.67;7.67;;;;;27.67;43.48;101555.31;5058086;28;46765;-76
2022/07/14 02:31:01;;;;;;;;;6.67;5.33;;;;;27.62;43.37;101549.25;5049876;28;66238;-77
2022/07/14 02:33:26;;;;;;;;;8.00;6.00;;;;;27.59;44.13;101553.00;5056349;28;63229;-77
2022/07/14 02:35:52;;;;;;;;;8.67;7.00;;;;;27.56;44.27;101550.41;5047005;28;52683;-78
2022/07/14 02:38:17;;;;;;;;;6.67;6.67;;;;;27.53;44.08;101555.09;5039373;28;46303;-78
2022/07/14 02:40:42;;;;;;;;;7.00;6.67;;;;;27.46;45.12;101557.25;5039375;28;63131;-77
2022/07/14 02:43:08;;;;;;;;;10.00;7.67;;;;;27.40;45.96;101555.72;5037536;28;63747;-76
2022/07/14 02:45:33;;;;;;;;;7.00;7.00;;;;;27.35;45.86;101546.03;5038640;28;45205;-78
2022/07/14 02:47:59;;;;;;;;;12.00;7.00;;;;;27.30;45.73;101542.66;5050265;28;69440;-77
2022/07/14 02:50:24;;;;;;;;;10.33;8.00;;;;;27.26;45.83;101547.34;5043178;28;45411;-76
2022/07/14 02:52:50;;;;;;;;;7.67;6.00;;;;;27.23;45.58;101543.91;5038287;28;55909;-77
2022/07/14 02:55:15;;;;;;;;;9.67;7.33;;;;;27.25;45.92;101544.69;5039431;28;45158;-77
2022/07/14 02:57:41;;;;;;;;;8.00;7.00;;;;;27.20;45.44;101544.03;5047212;28;63873;-78
2022/07/14 03:00:08;;;;;;;;;6.00;6.00;;;;;27.17;46.32;101546.91;5058427;28;45367;-77
2022/07/14 03:02:33;;;;;;;;;7.00;6.00;;;;;27.12;46.35;101545.28;5052423;28;45311;-79
2022/07/14 03:04:59;;;;;;;;;9.00;6.00;;;;;27.11;46.72;101540.81;5057709;28;54534;-78
2022/07/14 03:07:24;;;;;;;;;8.00;7.00;;;;;27.10;46.95;101544.47;5055886;28;47278;-78
2022/07/14 03:09:49;;;;;;;;;7.00;7.00;;;;;27.06;47.32;101542.84;5057430;28;58702;-78
2022/07/14 03:12:15;;;;;;;;;7.00;7.00;;;;;27.05;47.04;101553.72;5049615;28;58852;-78
2022/07/14 03:14:40;;;;;;;;;6.00;6.00;;;;;27.03;48.00;101548.38;5037173;28;58690;-77
2022/07/14 03:17:06;;;;;;;;;9.67;7.00;;;;;27.04;47.97;101546.56;5037594;28;46222;-77
2022/07/14 03:19:31;;;;;;;;;7.33;5.00;;;;;27.01;47.78;101535.88;5021183;28;45365;-78
2022/07/14 03:21:57;;;;;;;;;12.00;9.00;;;;;26.94;48.19;101539.78;5041162;28;61779;-78
2022/07/14 03:24:22;;;;;;;;;6.33;6.33;;;;;26.89;48.61;101546.28;5043186;28;56410;-77
2022/07/14 03:26:47;;;;;;;;;7.00;5.00;;;;;26.84;48.87;101540.22;5056654;28;63563;-78
2022/07/14 03:29:13;;;;;;;;;7.33;7.33;;;;;26.82;49.62;101538.53;5057740;28;45339;-77
2022/07/14 03:31:39;;;;;;;;;7.00;7.00;;;;;26.79;49.62;101533.25;5043051;28;62545;-77
2022/07/14 03:34:05;;;;;;;;;6.67;6.00;;;;;26.76;49.67;101533.41;5037393;28;49901;-77
2022/07/14 03:36:30;;;;;;;;;8.33;8.33;;;;;26.75;49.87;101532.53;5046927;28;47357;-78
2022/07/14 03:38:55;;;;;;;;;9.00;7.67;;;;;26.76;49.56;101538.81;5055807;28;45316;-77
2022/07/14 03:41:21;;;;;;;;;7.67;7.00;;;;;26.75;50.45;101545.19;5045829;28;61393;-77
2022/07/14 03:43:46;;;;;;;;;11.33;10.00;;;;;26.67;50.93;101547.34;5036928;28;62135;-77
2022/07/14 03:46:12;;;;;;;;;22.33;17.33;;;;;26.60;51.17;101542.22;5038423;28;46932;-77
2022/07/14 03:48:38;;;;;;;;;26.33;22.33;;;;;26.54;51.52;101545.19;5037441;28;45348;-77
2022/07/14 03:51:03;;;;;;;;;33.75;27.25;;;;;26.50;51.20;101546.28;5045150;28;45557;-78
2022/07/14 03:53:32;;;;;;;;;34.75;27.25;;;;;26.45;51.98;101542.88;5038574;28;45327;-77
2022/07/14 03:55:58;;;;;;;;;26.00;25.00;;;;;26.37;52.46;101543.19;5036617;28;46502;-77
2022/07/14 03:58:24;;;;;;;;;18.33;15.67;;;;;26.33;52.48;101540.69;5036670;28;45344;-77
2022/07/14 04:00:50;;;;;;;;;17.67;15.33;;;;;26.29;52.75;101541.75;5037907;28;45506;-77
2022/07/14 04:03:16;;;;;;;;;14.00;12.67;;;;;26.28;53.20;101537.28;5019698;28;45727;-77
2022/07/14 04:05:41;;;;;;;;;10.00;10.00;;;;;26.29;53.56;101539.94;5036840;28;47633;-77
2022/07/14 04:08:07;;;;;;;;;13.33;10.33;;;;;26.28;53.23;101538.19;5038097;28;45209;-77
2022/07/14 04:10:32;;;;;;;;;7.67;7.00;;;;;26.28;53.87;101540.00;5040604;28;45296;-76
2022/07/14 04:12:57;;;;;;;;;8.33;8.33;;;;;26.25;54.00;101538.28;5047221;28;60852;-77
2022/07/14 04:15:27;;;;;;;;;9.00;9.00;;;;;26.24;54.45;101541.06;5036070;28;67191;-78
2022/07/14 04:17:53;;;;;;;;;8.00;8.00;;;;;26.22;54.22;101534.84;5037005;28;45538;-77
2022/07/14 04:20:19;;;;;;;;;8.67;8.00;;;;;26.21;54.17;101549.34;5037257;28;45444;-78
2022/07/14 04:22:44;;;;;;;;;9.00;7.33;;;;;26.20;54.61;101544.84;5037248;28;45603;-77
2022/07/14 04:25:09;;;;;;;;;11.00;9.00;;;;;26.21;55.27;101543.94;5036789;28;45554;-78
2022/07/14 04:27:36;;;;;;;;;10.33;8.00;;;;;26.21;55.18;101552.94;5019530;28;45471;-77
2022/07/14 04:30:01;;;;;;;;;13.00;7.00;;;;;26.18;56.64;101553.06;5039049;28;45550;-76
2022/07/14 04:32:27;;;;;;;;;8.67;7.00;;;;;26.09;56.78;101548.03;5047551;28;56789;-77
2022/07/14 04:34:52;;;;;;;;;9.33;7.00;;;;;25.97;57.14;101549.41;5036790;28;46653;-77
2022/07/14 04:37:18;;;;;;;;;9.67;8.00;;;;;25.88;57.54;101554.31;5037855;28;45167;-77
2022/07/14 04:39:43;;;;;;;;;8.00;8.00;;;;;25.80;58.76;101557.38;5036974;28;45324;-77
2022/07/14 04:42:08;;;;;;;;;8.00;8.00;;;;;25.78;58.63;101549.31;5036848;28;45300;-77
2022/07/14 04:44:34;;;;;;;;;10.33;9.00;;;;;25.75;58.89;101556.66;5036586;28;47824;-77
2022/07/14 04:46:59;;;;;;;;;6.33;6.33;;;;;25.76;59.15;101559.31;5036418;28;45349;-77
2022/07/14 04:52:08;;;;;;;;;7.00;7.00;;;;;25.69;61.18;101555.06;5040576;28;45506;-77
2022/07/14 04:54:35;;;;;;;;;8.33;8.33;;;;;25.65;60.67;101563.34;5036763;28;68713;-77
2022/07/14 04:57:01;;;;;;;;;9.33;8.00;;;;;25.59;61.39;101559.94;5036015;28;45337;-77
2022/07/14 04:59:27;;;;;;;;;7.67;7.67;;;;;25.53;61.97;101552.09;5018711;28;45343;-77
2022/07/14 05:01:53;;;;;;;;;8.00;8.00;;;;;25.48;61.60;101547.81;5049946;28;45277;-76
2022/07/14 05:04:19;;;;;;;;;6.00;6.00;;;;;25.46;62.25;101549.66;5036217;28;46862;-77
2022/07/14 05:06:46;;;;;;;;;7.00;7.00;;;;;25.48;62.86;101559.50;5036823;28;45554;-77
2022/07/14 05:09:14;;;;;;;;;7.00;7.00;;;;;25.48;62.66;101561.31;5047508;28;45559;-78
2022/07/14 05:11:40;;;;;;;;;12.33;7.33;;;;;25.50;63.06;101562.13;5056707;28;45442;-77
2022/07/14 05:14:06;;;;;;;;;10.00;7.00;;;;;25.52;62.69;101558.44;5038238;28;47374;-77
2022/07/14 05:16:31;;;;;;;;;9.67;9.67;;;;;25.50;63.27;101554.03;5045910;28;45335;-77
2022/07/14 05:18:57;;;;;;;;;7.33;7.33;;;;;25.47;65.47;101562.28;5040345;28;45459;-77
2022/07/14 05:21:22;;;;;;;;;9.00;8.00;;;;;25.41;63.84;101552.59;5040760;28;45426;-77
2022/07/14 05:23:48;;;;;;;;;11.00;8.00;;;;;25.40;64.08;101556.19;5039276;28;47402;-77
2022/07/14 05:26:14;;;;;;;;;10.33;9.00;;;;;25.42;65.05;101557.03;5043611;28;61560;-77
2022/07/14 05:28:39;;;;;;;;;8.33;8.33;;;;;25.44;64.12;101555.16;5058956;28;45289;-77
2022/07/14 05:31:06;;;;;;;;;11.00;9.00;;;;;25.47;64.69;101559.56;5058296;28;45407;-78
2022/07/14 05:33:31;;;;;;;;;9.00;9.00;;;;;25.48;64.86;101564.91;5057408;28;47605;-77
2022/07/14 05:35:56;;;;;;;;;11.00;10.00;;;;;25.50;65.26;101565.72;5049862;28;45400;-77
2022/07/14 05:38:23;;;;;;;;;8.00;8.00;;;;;25.48;65.36;101570.31;5053413;28;53967;-77
2022/07/14 05:40:49;;;;;;;;;9.33;8.67;;;;;25.47;65.79;101573.09;5039622;28;45537;-76
2022/07/14 05:43:14;;;;;;;;;12.33;9.67;;;;;25.43;66.45;101569.63;5039142;28;47474;-77
2022/07/14 05:45:40;;;;;;;;;10.00;8.00;;;;;25.37;66.01;101575.25;5040137;28;55112;-78
2022/07/14 05:48:06;;;;;;;;;9.00;9.00;;;;;25.37;66.06;101575.25;5038757;28;62818;-78
2022/07/14 05:50:31;;;;;;;;;9.00;9.00;;;;;25.38;66.64;101574.31;5051277;28;45534;-78
2022/07/14 05:52:56;;;;;;;;;10.67;8.00;;;;;25.37;67.89;101577.09;5058667;28;66329;-77
2022/07/14 05:55:22;;;;;;;;;10.00;8.00;;;;;25.37;66.80;101577.97;5055892;28;65218;-77
2022/07/14 05:57:48;;;;;;;;;10.00;9.00;;;;;25.34;67.99;101575.38;5030799;28;45558;-78
2022/07/14 06:00:15;;;;;;;;;11.00;10.00;;;;;25.38;67.35;101586.97;5039579;28;45533;-80
2022/07/14 06:02:43;;;;;;;;;12.00;8.67;;;;;25.42;67.80;101581.38;5039262;28;46942;-80
2022/07/14 06:05:10;;;;;;;;;9.00;9.00;;;;;25.47;67.61;101582.09;5040332;28;46626;-84
2022/07/14 06:07:36;;;;;;;;;9.00;9.00;;;;;25.50;68.26;101581.06;5025672;28;45459;-78
2022/07/14 06:10:01;;;;;;;;;8.33;8.33;;;;;25.47;68.00;101573.97;5039178;28;45515;-77
2022/07/14 06:12:27;;;;;;;;;12.00;10.00;;;;;25.48;68.48;101581.13;5045228;28;47424;-81
2022/07/14 06:14:52;;;;;;;;;9.33;8.33;;;;;25.49;68.05;101585.59;5046459;28;45345;-81
2022/07/14 06:17:18;;;;;;;;;10.00;10.00;;;;;25.52;68.38;101581.91;5044041;28;45238;-80
2022/07/14 06:19:43;;;;;;;;;9.00;9.00;;;;;25.56;67.98;101578.13;5048901;28;45559;-79
2022/07/14 06:22:09;;;;;;;;;9.67;9.67;;;;;25.65;67.80;101585.00;5043381;28;68062;-80
2022/07/14 06:24:36;;;;;;;;;10.00;9.00;;;;;25.70;68.04;101585.69;5048672;28;45265;-78
2022/07/14 06:27:01;;;;;;;;;8.33;8.33;;;;;25.74;67.64;101590.03;5037813;28;45447;-79
2022/07/14 06:29:27;;;;;;;;;10.33;8.33;;;;;25.75;67.76;101581.91;5040096;28;45297;-79
2022/07/14 06:31:55;;;;;;;;;12.00;10.33;;;;;25.80;67.64;101584.41;5048316;28;68822;-79
2022/07/14 06:34:21;;;;;;;;;10.33;9.67;;;;;25.81;67.50;101581.63;5058421;28;45330;-79
2022/07/14 06:36:46;;;;;;;;;12.33;9.00;;;;;25.79;67.58;101572.72;5039980;28;45384;-78
2022/07/14 06:39:11;;;;;;;;;13.00;11.00;;;;;25.79;67.53;101583.53;5036453;28;55798;-77
2022/07/14 06:41:37;;;;;;;;;11.00;9.00;;;;;25.79;68.19;101588.94;5055331;28;46896;-76
2022/07/14 06:44:02;;;;;;;;;15.00;10.00;;;;;25.75;67.79;101586.44;5057482;28;63962;-77
2022/07/14 06:46:31;;;;;;;;;12.33;11.00;;;;;25.71;68.80;101584.75;5057011;28;45492;-77
2022/07/14 06:48:57;;;;;;;;;12.00;9.00;;;;;25.67;68.66;101597.50;5054754;28;45343;-76
2022/07/14 06:51:22;;;;;;;;;11.67;11.67;;;;;25.66;69.65;101586.75;5038840;28;46386;-77
2022/07/14 06:53:48;;;;;;;;;10.00;10.00;;;;;25.67;69.13;101583.97;5053091;28;45340;-75
2022/07/14 06:56:13;;;;;;;;;11.00;11.00;;;;;25.67;70.25;101586.69;5037662;28;55661;-76
2022/07/14 06:58:38;;;;;;;;;12.67;12.67;;;;;25.69;70.42;101592.06;5047996;28;45677;-76
2022/07/14 07:01:04;;;;;;;;;11.00;11.00;;;;;25.68;70.75;101596.59;5042037;28;67665;-77
2022/07/14 07:03:29;;;;;;;;;8.33;8.33;;;;;25.69;70.94;101592.06;5044391;28;45511;-74
2022/07/14 07:08:38;;;;;;;;;12.00;12.00;;;;;25.71;70.45;101587.44;5054071;28;45371;-75
2022/07/14 07:11:03;;;;;;;;;13.00;12.67;;;;;25.76;71.21;101597.19;5057612;28;47391;-75
2022/07/14 07:13:29;;;;;;;;;14.33;12.00;;;;;25.83;70.20;101589.69;5055313;28;62362;-76
2022/07/14 07:15:54;;;;;;;;;12.33;10.33;;;;;25.88;70.53;101584.97;5056646;28;45450;-76
2022/07/14 07:18:20;;;;;;;;;13.67;10.33;;;;;25.94;70.26;101582.03;5042742;28;54466;-75
2022/07/14 07:20:45;;;;;;;;;12.67;10.67;;;;;26.02;69.63;101577.16;5052341;28;59611;-75
2022/07/14 07:23:10;;;;;;;;;13.33;10.00;;;;;26.12;69.29;101575.84;5040505;28;67038;-74
2022/07/14 07:25:36;;;;;;;;;11.67;10.00;;;;;26.18;69.26;101579.25;5035399;28;45307;-75
2022/07/14 07:28:01;;;;;;;;;12.00;12.00;;;;;26.22;68.57;101584.47;5037036;28;45424;-76
2022/07/14 07:30:27;;;;;;;;;10.67;10.67;;;;;26.22;68.34;101576.34;5035598;28;47395;-82
2022/07/14 07:32:52;;;;;;;;;11.00;11.00;;;;;26.24;68.07;101581.69;5046297;28;45392;-83
2022/07/14 07:35:18;;;;;;;;;9.00;9.00;;;;;26.27;68.11;101581.56;5050509;28;45422;-82
2022/07/14 07:37:43;;;;;;;;;9.33;8.33;;;;;26.32;67.82;101576.84;5033806;28;45687;-82
2022/07/14 07:40:09;;;;;;;;;11.00;9.67;;;;;26.36;67.55;101573.03;5038714;28;46662;-82
2022/07/14 07:42:35;;;;;;;;;12.33;11.00;;;;;26.37;66.83;101580.22;5019394;28;45613;-82
2022/07/14 07:45:00;;;;;;;;;11.67;9.33;;;;;26.41;66.56;101587.25;5053727;28;45600;-83
2022/07/14 07:47:26;;;;;;;;;10.33;10.00;;;;;26.45;66.82;101586.22;5037980;28;45471;-83
2022/07/14 07:49:52;;;;;;;;;12.00;10.67;;;;;26.47;66.71;101580.72;5047168;28;46155;-82
2022/07/14 07:52:17;;;;;;;;;10.33;10.00;;;;;26.53;66.82;101575.94;5057210;28;45460;-83
2022/07/14 07:54:44;;;;;;;;;11.33;10.00;;;;;26.58;66.40;101571.22;5042498;28;46006;-83
2022/07/14 07:57:11;;;;;;;;;13.00;11.67;;;;;26.66;65.73;101578.09;5019319;28;45403;-83
2022/07/14 07:59:36;;;;;;;;;11.67;10.00;;;;;26.70;66.71;101577.03;5038252;28;46462;-82
2022/07/14 08:02:02;;;;;;;;;9.00;7.67;;;;;26.72;65.46;101573.28;5036743;28;45383;-82
2022/07/14 08:04:27;;;;;;;;;11.00;11.00;;;;;26.76;65.56;101580.34;5036527;28;61675;-82
2022/07/14 08:06:53;;;;;;;;;12.00;9.00;;;;;26.77;65.59;101570.38;5038528;28;45739;-82
2022/07/14 08:09:18;;;;;;;;;9.00;9.00;;;;;26.78;65.56;101572.13;5053131;28;47186;-82
2022/07/14 08:11:43;;;;;;;;;11.00;9.67;;;;;26.83;65.26;101581.81;5053335;28;45315;-82
2022/07/14 08:16:54;;;;;;;;;10.00;10.00;;;;;26.85;64.08;101566.38;5045719;28;45541;-81
2022/07/14 08:19:20;;;;;;;;;8.33;8.00;;;;;26.86;64.18;101564.56;5034825;28;47611;-82
2022/07/14 08:21:45;;;;;;;;;11.00;10.00;;;;;26.87;64.76;101566.31;5036982;28;45343;-82
2022/07/14 08:24:11;;;;;;;;;9.67;9.67;;;;;26.89;64.53;101565.28;5036476;28;45455;-82
2022/07/14 08:26:36;;;;;;;;;8.00;8.00;;;;;26.93;64.58;101570.56;5045833;28;55426;-82
2022/07/14 08:29:01;;;;;;;;;10.00;8.33;;;;;26.97;63.64;101570.34;5042444;28;65279;-84
2022/07/14 08:31:27;;;;;;;;;11.00;9.00;;;;;26.99;63.53;101570.28;5019259;28;62011;-83
2022/07/14 08:33:52;;;;;;;;;10.33;8.00;;;;;27.02;63.32;101559.31;5020105;28;63810;-82
2022/07/14 08:36:17;;;;;;;;;11.00;10.00;;;;;27.05;63.10;101570.00;5054476;28;45526;-82
2022/07/14 08:38:43;;;;;;;;;10.00;10.00;;;;;27.05;63.55;101564.56;5046487;28;68577;-83
2022/07/14 08:41:10;;;;;;;;;10.67;9.00;;;;;27.07;63.80;101563.59;5038460;28;45458;-83
2022/07/14 08:43:36;;;;;;;;;9.00;6.67;;;;;27.11;63.50;101562.50;5036394;28;45284;-83
2022/07/14 08:46:03;;;;;;;;;11.33;9.67;;;;;27.18;62.85;101562.22;5036421;28;45521;-81
2022/07/14 08:48:29;;;;;;;;;11.67;9.33;;;;;27.24;63.21;101557.38;5053521;28;46341;-83
2022/07/14 08:50:56;;;;;;;;;10.00;8.00;;;;;27.32;62.50;101559.72;5019129;28;45416;-81
2022/07/14 08:53:21;;;;;;;;;14.67;10.00;;;;;27.39;62.54;101551.25;5037854;28;45286;-83
2022/07/14 08:55:47;;;;;;;;;8.33;8.33;;;;;27.45;61.98;101558.19;5020301;28;56809;-81
2022/07/14 08:58:12;;;;;;;;;8.00;8.00;;;;;27.53;61.71;101555.97;5032931;28;47422;-84
2022/07/14 09:00:38;;;;;;;;;9.00;8.00;;;;;27.57;60.65;101557.59;5036157;28;45258;-83
2022/07/14 09:03:05;;;;;;;;;9.33;8.00;;;;;27.59;60.74;101563.84;5037465;28;45403;-83
2022/07/14 09:05:30;;;;;;;;;8.67;7.00;;;;;27.63;59.66;101554.59;5052739;28;45258;-83
2022/07/14 09:07:57;;;;;;;;;8.00;8.00;;;;;27.64;60.07;101553.63;5056371;28;46386;-84
2022/07/14 09:10:27;;;;;;;;;10.00;9.00;;;;;27.71;59.94;101550.66;5158205;22;46549;-84
2022/07/14 09:13:17;;;;;;;;;8.00;8.00;;;;;27.70;59.16;101544.38;5056239;28;45541;-84
2022/07/14 09:15:46;;;;;;;;;8.00;8.00;;;;;27.73;58.94;101544.19;5059598;28;45526;-84
2022/07/14 09:18:27;;;;;;;;;8.67;7.67;;;;;27.79;59.18;101538.47;5059879;28;46660;-83
2022/07/14 09:20:54;;;;;;;;;9.00;7.33;;;;;27.83;58.92;101539.19;5055235;28;45578;-83
2022/07/14 09:23:27;;;;;;;;;9.00;9.00;;;;;27.88;58.56;101542.56;5064777;28;45561;-83
2022/07/14 09:26:09;;;;;;;;;9.67;7.33;;;;;27.93;57.87;101535.94;5069247;28;45475;-84
2022/07/14 09:28:41;;;;;;;;;7.00;7.00;;;;;27.97;57.82;101536.69;5070141;28;47208;-84
2022/07/14 09:31:26;;;;;;;;;6.00;6.00;;;;;28.00;57.88;101533.78;5058088;28;45305;-83
2022/07/14 09:33:55;;;;;;;;;7.67;6.67;;;;;28.05;57.38;101533.56;5057216;28;45537;-84
2022/07/14 09:36:28;;;;;;;;;6.33;6.33;;;;;28.11;56.75;101539.56;5055799;28;45490;-83
2022/07/14 09:39:08;;;;;;;;;7.00;7.00;;;;;28.15;55.64;101535.72;5060901;28;47635;-83
2022/07/14 09:41:50;;;;;;;;;8.00;6.67;;;;;28.19;55.24;101529.19;5070586;28;45407;-85
2022/07/14 09:44:17;;;;;;;;;6.00;6.00;;;;;28.25;55.23;101532.53;5058894;28;45463;-84
2022/07/14 09:46:54;;;;;;;;;7.33;7.33;;;;;28.29;54.73;101542.31;5058576;28;45679;-83
2022/07/14 09:49:23;;;;;;;;;5.00;5.00;;;;;28.30;53.13;101530.47;5058937;28;46651;-83
2022/07/14 09:51:57;;;;;;;;;7.00;6.67;;;;;28.32;52.37;101534.84;5054913;28;45269;-83
2022/07/14 09:54:46;;;;;;;;;6.67;6.67;;;;;28.36;52.03;101538.34;5058003;28;45641;-84
2022/07/14 09:57:14;;;;;;;;;5.00;5.00;;;;;28.40;51.60;101534.50;5058808;28;45466;-83
2022/07/14 10:00:12;;;;;;;;;6.00;6.00;;;;;28.45;50.94;101543.28;5059394;28;47414;-83
2022/07/14 10:02:40;;;;;;;;;6.00;6.00;;;;;28.50;50.90;101529.44;5067371;28;45765;-84
2022/07/14 10:05:08;;;;;;;;;6.00;5.33;;;;;28.57;50.50;101537.19;5075651;28;45392;-83
2022/07/14 10:07:38;;;;;;;;;8.33;5.00;;;;;28.61;50.06;101538.81;5079018;28;45378;-84
2022/07/14 10:10:15;;;;;;;;;5.00;5.00;;;;;28.68;49.82;101542.94;5079062;28;46885;-84
2022/07/14 10:12:41;;;;;;;;;5.00;5.00;;;;;28.73;49.74;101536.38;5062359;28;45420;-84
2022/07/14 10:15:10;;;;;;;;;8.00;6.00;;;;;28.79;49.77;101541.50;5073293;28;45439;-84
2022/07/14 10:17:37;;;;;;;;;6.67;6.67;;;;;28.81;50.10;101532.28;5060297;28;45501;-84
2022/07/14 10:20:06;;;;;;;;;6.67;6.67;;;;;28.88;50.15;101538.28;5059686;28;45626;-84
2022/07/14 10:22:31;;;;;;;;;6.67;6.67;;;;;28.92;50.36;101532.59;5058423;28;45288;-85
2022/07/14 10:24:57;;;;;;;;;5.67;5.67;;;;;28.95;50.20;101537.88;5058577;28;45284;-84
2022/07/14 10:27:22;;;;;;;;;4.00;4.00;;;;;28.99;50.32;101541.31;5078296;28;55465;-85
2022/07/14 10:29:52;;;;;;;;;5.00;5.00;;;;;29.05;49.61;101540.09;5049262;28;47456;-84
2022/07/14 10:32:35;;;;;;;;;6.00;5.00;;;;;29.09;49.33;101526.25;5058389;28;45418;-84
2022/07/14 10:35:06;;;;;;;;;5.00;5.00;;;;;29.14;49.67;101529.59;5050356;28;45502;-84
2022/07/14 10:38:08;;;;;;;;;5.00;5.00;;;;;29.20;49.21;101534.69;5076705;28;45540;-85
2022/07/14 10:40:46;;;;;;;;;5.33;5.33;;;;;29.30;47.98;101534.19;5078576;28;47262;-84
2022/07/14 10:43:16;;;;;;;;;7.33;4.33;;;;;29.33;47.74;101545.75;5076930;28;45335;-84
2022/07/14 10:45:48;;;;;;;;;3.00;3.00;;;;;29.39;47.47;101536.38;5060599;28;45311;-85
2022/07/14 10:48:31;;;;;;;;;3.33;3.00;;;;;29.46;47.33;101544.09;5068271;28;45534;-84
2022/07/14 10:51:18;;;;;;;;;4.00;4.00;;;;;29.51;46.26;101530.25;5058240;28;46481;-84
2022/07/14 10:54:09;;;;;;;;;6.00;5.00;;;;;29.55;46.68;101526.41;5058332;28;45376;-84
2022/07/14 10:56:36;;;;;;;;;6.33;5.00;;;;;29.58;46.40;101528.94;5057996;28;45315;-85
2022/07/14 10:59:26;;;;;;;;;4.33;4.00;;;;;29.64;45.22;101527.72;5060368;28;45557;-84
2022/07/14 11:02:10;;;;;;;;;2.67;1.33;;;;;29.68;44.71;101530.19;5057818;28;45798;-86
2022/07/14 11:05:02;;;;;;;;;4.33;4.33;;;;;29.74;45.17;101521.66;5070793;28;45485;-83
2022/07/14 11:07:58;;;;;;;;;7.33;5.67;;;;;29.77;45.02;101519.69;5065910;28;45294;-84
2022/07/14 11:10:24;;;;;;;;;6.00;5.00;;;;;29.82;44.78;101523.91;5058059;28;45747;-84
2022/07/14 11:12:59;;;;;;;;;4.67;4.00;;;;;29.88;44.32;101520.84;5057099;28;45621;-84
2022/07/14 11:15:37;;;;;;;;;7.33;5.00;;;;;29.94;44.60;101528.66;5058010;28;45305;-84
2022/07/14 11:18:17;;;;;;;;;5.67;4.00;;;;;30.01;44.55;101534.59;5059149;28;45478;-84
2022/07/14 11:20:56;;;;;;;;;6.00;6.00;;;;;30.03;43.86;101527.22;5069005;28;45496;-86
2022/07/14 11:23:26;;;;;;;;;5.00;5.00;;;;;30.10;44.09;101533.19;5058326;28;47585;-84
2022/07/14 11:25:53;;;;;;;;;5.00;5.00;;;;;30.17;43.66;101537.34;5058811;28;45378;-86
2022/07/14 11:28:44;;;;;;;;;4.00;4.00;;;;;30.24;43.33;101533.25;5062213;28;45523;-86
2022/07/14 11:31:13;;;;;;;;;5.33;5.33;;;;;30.29;43.24;101528.41;5069887;28;45432;-84
2022/07/14 11:36:17;;;;;;;;;5.00;5.00;;;;;30.33;42.77;101527.25;5075907;28;46597;-84
2022/07/14 11:36:27;;;;;;;;;4.33;4.33;;;;;30.42;42.29;101523.09;5047525;28;45253;-84